createdAt,value
2022-10-22T00:01:43.712Z,71.72
2022-10-22T00:03:45.030Z,71.65
2022-10-22T00:05:46.303Z,71.79
2022-10-22T00:07:47.594Z,72.07
2022-10-22T00:09:48.875Z,72.18
2022-10-22T00:11:50.157Z,72.31
2022-10-22T00:13:51.508Z,71.96
2022-10-22T00:15:52.841Z,72.41
2022-10-22T00:17:54.121Z,72.05
2022-10-22T00:19:55.425Z,72.33
2022-10-22T00:21:58.409Z,72.21
2022-10-22T00:23:59.726Z,71.88
2022-10-22T00:26:01.043Z,72.37
2022-10-22T00:28:02.577Z,72.10
2022-10-22T00:30:03.856Z,71.96
2022-10-22T00:32:05.146Z,72.14
2022-10-22T00:34:06.402Z,72.19
2022-10-22T00:36:07.741Z,72.68
2022-10-22T00:38:09.005Z,72.81
2022-10-22T00:40:10.336Z,72.84
2022-10-22T00:42:11.617Z,72.65
2022-10-22T00:44:12.892Z,72.84
2022-10-22T00:46:14.192Z,72.93
2022-10-22T00:48:16.160Z,72.85
2022-10-22T00:50:17.433Z,73.17
2022-10-22T00:52:18.716Z,73.44
2022-10-22T00:54:20.071Z,73.48
2022-10-22T00:56:21.566Z,73.17
2022-10-22T00:58:22.856Z,73.17
2022-10-22T01:00:24.142Z,73.14
2022-10-22T01:02:25.465Z,73.66
2022-10-22T01:04:26.740Z,73.91
2022-10-22T01:06:28.030Z,73.80
2022-10-22T01:08:29.329Z,73.86
2022-10-22T01:10:30.618Z,73.92
2022-10-22T01:12:31.914Z,74.17
2022-10-22T01:14:33.189Z,74.21
2022-10-22T01:16:34.447Z,73.83
2022-10-22T01:18:35.774Z,73.79
2022-10-22T01:20:37.069Z,74.11
2022-10-22T01:22:38.606Z,74.18
2022-10-22T01:24:39.922Z,73.79
2022-10-22T01:26:41.198Z,74.14
2022-10-22T01:28:42.491Z,74.39
2022-10-22T01:30:44.051Z,74.14
2022-10-22T01:32:45.843Z,74.25
2022-10-22T01:34:47.109Z,74.42
2022-10-22T01:36:48.817Z,74.60
2022-10-22T01:38:50.106Z,74.82
2022-10-22T01:40:51.552Z,74.71
2022-10-22T01:42:52.846Z,74.84
2022-10-22T01:44:54.179Z,74.64
2022-10-22T01:46:56.018Z,74.53
2022-10-22T01:48:57.501Z,74.46
2022-10-22T01:50:58.782Z,74.62
2022-10-22T01:53:00.574Z,74.58
2022-10-22T01:55:01.852Z,75.14
2022-10-22T01:57:03.161Z,74.76
2022-10-22T01:59:04.545Z,74.88
2022-10-22T02:01:05.830Z,75.04
2022-10-22T02:03:07.574Z,75.11
2022-10-22T02:05:08.886Z,75.05
2022-10-22T02:07:10.214Z,75.26
2022-10-22T02:09:11.528Z,75.48
2022-10-22T02:11:12.948Z,75.69
2022-10-22T02:13:14.283Z,75.75
2022-10-22T02:15:15.559Z,75.47
2022-10-22T02:17:16.898Z,75.91
2022-10-22T02:19:18.231Z,75.65
2022-10-22T02:21:19.562Z,75.50
2022-10-22T02:23:20.845Z,75.81
2022-10-22T02:25:22.183Z,75.98
2022-10-22T02:27:26.026Z,75.94
2022-10-22T02:29:28.514Z,75.96
2022-10-22T02:31:29.780Z,75.80
2022-10-22T02:33:31.053Z,75.52
2022-10-22T02:35:32.386Z,75.83
2022-10-22T02:37:33.675Z,75.70
2022-10-22T02:39:34.990Z,76.13
2022-10-22T02:41:36.619Z,76.08
2022-10-22T02:43:37.890Z,75.93
2022-10-22T02:45:39.195Z,75.91
2022-10-22T02:47:40.526Z,76.43
2022-10-22T02:49:41.806Z,76.12
2022-10-22T02:51:43.089Z,76.50
2022-10-22T02:53:44.390Z,76.79
2022-10-22T02:55:45.699Z,76.56
2022-10-22T02:57:46.959Z,76.19
2022-10-22T02:59:48.235Z,76.15
2022-10-22T03:01:49.491Z,76.24
2022-10-22T03:03:50.770Z,76.45
2022-10-22T03:05:52.039Z,76.28
2022-10-22T03:07:53.376Z,75.76
2022-10-22T03:09:54.653Z,75.77
2022-10-22T03:11:56.192Z,75.63
2022-10-22T03:13:57.478Z,75.46
2022-10-22T03:15:58.764Z,75.57
2022-10-22T03:18:00.105Z,75.73
2022-10-22T03:20:01.357Z,75.37
2022-10-22T03:22:02.618Z,75.14
2022-10-22T03:24:03.894Z,75.45
2022-10-22T03:26:05.215Z,75.14
2022-10-22T03:28:06.526Z,75.38
2022-10-22T03:30:08.682Z,75.13
2022-10-22T03:32:09.967Z,74.96
2022-10-22T03:34:13.456Z,75.34
2022-10-22T03:36:14.764Z,75.00
2022-10-22T03:38:16.126Z,74.85
2022-10-22T03:40:17.427Z,75.09
2022-10-22T03:42:18.717Z,75.51
2022-10-22T03:44:20.024Z,75.37
2022-10-22T03:46:21.300Z,75.39
2022-10-22T03:48:22.681Z,75.29
2022-10-22T03:50:23.965Z,75.55
2022-10-22T03:52:25.262Z,75.24
2022-10-22T03:54:26.609Z,75.91
2022-10-22T03:56:27.950Z,75.73
2022-10-22T03:58:29.205Z,75.94
2022-10-22T04:00:30.532Z,75.84
2022-10-22T04:02:31.818Z,76.07
2022-10-22T04:04:33.128Z,76.08
2022-10-22T04:06:34.423Z,76.45
2022-10-22T04:08:35.744Z,76.35
2022-10-22T04:10:37.057Z,76.20
2022-10-22T04:12:38.372Z,76.27
2022-10-22T04:14:39.674Z,76.22
2022-10-22T04:16:40.945Z,76.13
2022-10-22T04:18:42.238Z,76.27
2022-10-22T04:20:43.519Z,76.53
2022-10-22T04:22:44.858Z,76.30
2022-10-22T04:24:46.215Z,76.76
2022-10-22T04:26:47.591Z,76.39
2022-10-22T04:28:49.089Z,76.50
2022-10-22T04:30:50.347Z,76.64
2022-10-22T04:32:51.611Z,76.63
2022-10-22T04:34:52.919Z,76.59
2022-10-22T04:36:54.186Z,76.05
2022-10-22T04:38:55.506Z,76.33
2022-10-22T04:40:56.991Z,76.35
2022-10-22T04:42:58.263Z,76.03
2022-10-22T04:44:59.553Z,75.79
2022-10-22T04:47:00.887Z,76.01
2022-10-22T04:49:04.768Z,76.15
2022-10-22T04:51:06.680Z,75.53
2022-10-22T04:53:07.951Z,75.41
2022-10-22T04:55:09.231Z,75.90
2022-10-22T04:57:10.512Z,75.42
2022-10-22T04:59:12.770Z,75.85
2022-10-22T05:01:14.178Z,75.46
2022-10-22T05:03:15.647Z,75.46
2022-10-22T05:05:16.918Z,75.32
2022-10-22T05:07:18.277Z,75.10
2022-10-22T05:09:19.664Z,75.31
2022-10-22T05:11:21.018Z,75.62
2022-10-22T05:13:22.302Z,75.66
2022-10-22T05:15:23.580Z,75.96
2022-10-22T05:17:24.850Z,75.92
2022-10-22T05:19:26.204Z,75.85
2022-10-22T05:21:27.783Z,75.94
2022-10-22T05:23:29.072Z,76.15
2022-10-22T05:25:31.063Z,76.36
2022-10-22T05:27:32.354Z,76.65
2022-10-22T05:29:33.647Z,76.82
2022-10-22T05:31:34.961Z,77.50
2022-10-22T05:33:36.235Z,77.46
2022-10-22T05:35:37.503Z,77.31
2022-10-22T05:37:39.114Z,77.39
2022-10-22T05:39:41.627Z,77.26
2022-10-22T05:41:42.927Z,77.36
2022-10-22T05:43:44.801Z,77.27
2022-10-22T05:45:46.080Z,77.64
2022-10-22T05:47:47.371Z,77.69
2022-10-22T05:49:48.686Z,77.71
2022-10-22T05:51:49.978Z,77.87
2022-10-22T05:53:51.392Z,77.60
2022-10-22T05:55:52.727Z,77.41
2022-10-22T05:57:54.003Z,77.43
2022-10-22T05:59:55.266Z,77.42
2022-10-22T06:01:56.618Z,77.92
2022-10-22T06:03:57.966Z,78.06
2022-10-22T06:05:59.243Z,77.67
2022-10-22T06:08:00.542Z,77.85
2022-10-22T06:12:03.073Z,78.13
2022-10-22T06:14:04.355Z,78.53
2022-10-22T06:16:05.650Z,78.29
2022-10-22T06:18:06.939Z,78.65
2022-10-22T06:20:08.203Z,78.31
2022-10-22T06:22:09.465Z,78.39
2022-10-22T06:24:10.781Z,78.46
2022-10-22T06:26:12.153Z,78.19
2022-10-22T06:28:13.502Z,77.69
2022-10-22T06:30:14.836Z,77.06
2022-10-22T06:32:16.142Z,76.71
2022-10-22T06:34:18.934Z,76.19
2022-10-22T06:36:20.263Z,76.29
2022-10-22T06:38:21.607Z,75.86
2022-10-22T06:40:23.266Z,75.74
2022-10-22T06:42:24.529Z,75.48
2022-10-22T06:44:25.825Z,75.81
2022-10-22T06:46:27.210Z,75.36
2022-10-22T06:48:28.490Z,75.59
2022-10-22T06:50:29.777Z,75.63
2022-10-22T06:52:31.088Z,75.45
2022-10-22T06:54:35.883Z,75.22
2022-10-22T06:56:37.222Z,75.27
2022-10-22T06:58:38.860Z,75.28
2022-10-22T07:00:40.183Z,75.17
2022-10-22T07:02:41.913Z,75.37
2022-10-22T07:04:43.651Z,75.80
2022-10-22T07:06:44.927Z,75.62
2022-10-22T07:08:46.301Z,76.11
2022-10-22T07:10:47.621Z,75.92
2022-10-22T07:12:48.881Z,75.99
2022-10-22T07:14:50.190Z,75.86
2022-10-22T07:16:51.485Z,76.00
2022-10-22T07:18:52.904Z,76.56
2022-10-22T07:20:54.179Z,76.38
2022-10-22T07:22:55.439Z,76.73
2022-10-22T07:24:56.738Z,76.63
2022-10-22T07:26:58.069Z,77.06
2022-10-22T07:28:59.391Z,77.16
2022-10-22T07:31:00.694Z,76.63
2022-10-22T07:33:01.950Z,76.82
2022-10-22T07:35:03.233Z,76.81
2022-10-22T07:37:04.598Z,77.33
2022-10-22T07:39:05.930Z,77.16
2022-10-22T07:41:10.267Z,77.50
2022-10-22T07:43:11.554Z,77.39
2022-10-22T07:45:12.928Z,77.15
2022-10-22T07:47:14.207Z,76.94
2022-10-22T07:49:15.493Z,77.49
2022-10-22T07:51:19.589Z,77.58
2022-10-22T07:53:21.354Z,77.28
2022-10-22T07:55:22.629Z,76.94
2022-10-22T07:57:23.955Z,77.01
2022-10-22T07:59:25.231Z,77.24
2022-10-22T08:01:26.536Z,77.05
2022-10-22T08:03:27.901Z,76.24
2022-10-22T08:05:29.167Z,76.13
2022-10-22T08:07:30.488Z,75.75
2022-10-22T08:09:31.758Z,76.09
2022-10-22T08:11:33.587Z,75.97
2022-10-22T08:13:34.870Z,76.32
2022-10-22T08:15:36.220Z,76.21
2022-10-22T08:17:37.538Z,76.04
2022-10-22T08:19:44.977Z,76.00
2022-10-22T08:21:46.249Z,72.28
2022-10-22T08:23:47.555Z,68.62
2022-10-22T08:25:48.871Z,72.30
2022-10-22T08:27:50.223Z,71.63
2022-10-22T08:29:51.538Z,70.76
2022-10-22T08:31:52.811Z,70.82
2022-10-22T08:33:54.115Z,70.49
2022-10-22T08:35:55.383Z,70.97
2022-10-22T08:37:56.725Z,71.39
2022-10-22T08:39:58.000Z,71.46
2022-10-22T08:41:59.415Z,71.63
2022-10-22T08:44:00.706Z,71.75
2022-10-22T08:46:01.989Z,71.64
2022-10-22T08:48:03.432Z,72.18
2022-10-22T08:50:04.742Z,72.13
2022-10-22T08:52:06.096Z,72.56
2022-10-22T08:54:07.473Z,72.36
2022-10-22T08:56:08.756Z,72.96
2022-10-22T08:58:15.926Z,72.93
2022-10-22T09:00:17.230Z,72.70
2022-10-22T09:02:18.513Z,73.27
2022-10-22T09:04:25.293Z,72.96
2022-10-22T09:06:26.676Z,73.33
2022-10-22T09:08:28.050Z,73.62
2022-10-22T09:10:29.374Z,73.78
2022-10-22T09:12:30.666Z,73.72
2022-10-22T09:14:31.944Z,74.21
2022-10-22T09:16:33.215Z,73.96
2022-10-22T09:18:34.563Z,74.10
2022-10-22T09:20:35.840Z,74.11
2022-10-22T09:22:37.206Z,74.16
2022-10-22T09:24:38.653Z,74.28
2022-10-22T09:26:39.965Z,74.19
2022-10-22T09:28:41.282Z,74.68
2022-10-22T09:30:43.436Z,74.46
2022-10-22T09:32:44.722Z,74.81
2022-10-22T09:34:46.003Z,74.61
2022-10-22T09:36:47.274Z,74.80
2022-10-22T09:38:48.589Z,74.81
2022-10-22T09:40:49.958Z,74.99
2022-10-22T09:42:51.257Z,74.80
2022-10-22T09:44:52.575Z,74.65
2022-10-22T09:46:53.942Z,75.15
2022-10-22T09:48:55.286Z,74.88
2022-10-22T09:50:56.611Z,74.56
2022-10-22T09:52:57.875Z,74.85
2022-10-22T09:54:59.191Z,74.61
2022-10-22T09:57:00.482Z,74.04
2022-10-22T09:59:01.773Z,74.49
2022-10-22T10:01:03.174Z,74.16
2022-10-22T10:03:04.534Z,74.50
2022-10-22T10:05:05.887Z,74.31
2022-10-22T10:07:07.223Z,74.60
2022-10-22T10:09:08.623Z,74.78
2022-10-22T10:11:10.405Z,74.73
2022-10-22T10:13:11.685Z,74.88
2022-10-22T10:15:12.966Z,74.60
2022-10-22T10:17:14.279Z,74.91
2022-10-22T10:19:15.602Z,74.83
2022-10-22T10:21:16.890Z,74.58
2022-10-22T10:23:20.609Z,74.74
2022-10-22T10:25:24.554Z,74.02
2022-10-22T10:27:25.850Z,72.39
2022-10-22T10:29:28.150Z,72.83
2022-10-22T10:31:29.438Z,72.11
2022-10-22T10:33:30.741Z,71.03
2022-10-22T10:35:32.111Z,70.79
2022-10-22T10:37:33.392Z,71.41
2022-10-22T10:39:34.721Z,70.34
2022-10-22T10:41:36.043Z,72.14
2022-10-22T10:43:37.338Z,70.85
2022-10-22T10:45:41.629Z,72.19
2022-10-22T10:47:43.436Z,72.14
2022-10-22T10:49:45.071Z,72.26
2022-10-22T10:51:46.391Z,71.93
2022-10-22T10:53:47.665Z,72.00
2022-10-22T10:55:48.951Z,72.40
2022-10-22T10:57:50.243Z,72.86
2022-10-22T10:59:51.543Z,72.83
2022-10-22T11:01:52.858Z,73.03
2022-10-22T11:03:54.178Z,72.65
2022-10-22T11:05:56.158Z,72.91
2022-10-22T11:07:58.389Z,72.67
2022-10-22T11:09:59.926Z,72.32
2022-10-22T11:12:01.192Z,71.88
2022-10-22T11:14:02.470Z,71.76
2022-10-22T11:16:03.762Z,72.69
2022-10-22T11:18:06.078Z,73.12
2022-10-22T11:20:07.390Z,74.93
2022-10-22T11:22:08.666Z,73.36
2022-10-22T11:24:09.961Z,73.40
2022-10-22T11:26:11.682Z,73.42
2022-10-22T11:28:13.000Z,73.64
2022-10-22T11:30:14.275Z,73.90
2022-10-22T11:32:15.583Z,73.17
2022-10-22T11:34:32.664Z,73.35
2022-10-22T11:36:34.788Z,73.22
2022-10-22T11:38:36.785Z,72.76
2022-10-22T11:40:38.182Z,72.57
2022-10-22T11:42:39.525Z,72.44
2022-10-22T11:44:40.868Z,72.53
2022-10-22T11:46:42.229Z,72.43
2022-10-22T11:48:43.510Z,72.72
2022-10-22T11:50:45.037Z,72.36
2022-10-22T11:52:46.316Z,72.74
2022-10-22T11:54:47.627Z,72.53
2022-10-22T11:56:49.047Z,72.58
2022-10-22T11:58:53.747Z,73.04
2022-10-22T12:00:56.215Z,73.03
2022-10-22T12:02:57.499Z,73.09
2022-10-22T12:04:58.887Z,72.80
2022-10-22T12:07:03.152Z,72.91
2022-10-22T12:09:05.680Z,73.01
2022-10-22T12:11:06.978Z,73.68
2022-10-22T12:13:08.286Z,73.58
2022-10-22T12:15:09.573Z,73.05
2022-10-22T12:17:11.006Z,73.28
2022-10-22T12:19:12.878Z,73.39
2022-10-22T12:21:14.363Z,73.05
2022-10-22T12:23:15.858Z,72.72
2022-10-22T12:25:22.131Z,72.96
2022-10-22T12:27:23.485Z,72.93
2022-10-22T12:29:26.606Z,72.95
2022-10-22T12:31:27.938Z,72.84
2022-10-22T12:33:29.202Z,72.54
2022-10-22T12:35:30.514Z,72.40
2022-10-22T12:37:31.779Z,72.84
2022-10-22T12:39:35.379Z,72.37
2022-10-22T12:41:36.698Z,72.34
2022-10-22T12:43:39.548Z,72.45
2022-10-22T12:45:40.878Z,72.41
2022-10-22T12:47:42.380Z,72.33
2022-10-22T12:49:44.254Z,72.46
2022-10-22T12:51:45.663Z,73.53
2022-10-22T12:53:46.963Z,72.93
2022-10-22T12:55:49.524Z,72.71
2022-10-22T12:57:50.837Z,72.51
2022-10-22T12:59:52.186Z,72.78
2022-10-22T13:01:53.602Z,72.69
2022-10-22T13:03:54.911Z,72.72
2022-10-22T13:05:56.194Z,72.42
2022-10-22T13:07:57.487Z,72.64
2022-10-22T13:09:58.820Z,72.16
2022-10-22T13:12:01.717Z,72.90
2022-10-22T13:14:03.018Z,72.80
2022-10-22T13:16:04.323Z,72.22
2022-10-22T13:18:05.643Z,72.54
2022-10-22T13:20:09.629Z,73.94
2022-10-22T13:22:10.922Z,72.62
2022-10-22T13:24:12.184Z,72.58
2022-10-22T13:26:13.496Z,73.23
2022-10-22T13:28:14.831Z,73.03
2022-10-22T13:30:16.114Z,73.16
2022-10-22T13:32:17.395Z,72.90
2022-10-22T13:34:18.665Z,72.70
2022-10-22T13:36:19.961Z,72.66
2022-10-22T13:38:21.249Z,72.57
2022-10-22T13:40:22.576Z,72.29
2022-10-22T13:42:23.890Z,72.12
2022-10-22T13:44:25.184Z,72.21
2022-10-22T13:46:26.467Z,73.34
2022-10-22T13:48:27.813Z,73.74
2022-10-22T13:50:29.076Z,73.76
2022-10-22T13:52:30.452Z,74.11
2022-10-22T13:54:31.768Z,73.89
2022-10-22T13:56:33.088Z,74.15
2022-10-22T13:58:34.408Z,73.99
2022-10-22T14:00:35.982Z,73.97
2022-10-22T14:02:37.327Z,73.94
2022-10-22T14:04:38.634Z,72.62
2022-10-22T14:06:39.901Z,71.58
2022-10-22T14:08:41.277Z,70.39
2022-10-22T14:10:42.606Z,70.91
2022-10-22T14:12:43.934Z,71.62
2022-10-22T14:14:45.244Z,71.72
2022-10-22T14:16:46.586Z,72.22
2022-10-22T14:18:47.935Z,71.92
2022-10-22T14:20:52.113Z,72.18
2022-10-22T14:22:53.508Z,72.44
2022-10-22T14:24:55.334Z,72.31
2022-10-22T14:26:56.591Z,71.76
2022-10-22T14:29:13.888Z,72.98
2022-10-22T14:31:15.215Z,71.55
2022-10-22T14:33:16.530Z,71.46
2022-10-22T14:35:17.824Z,71.89
2022-10-22T14:37:19.193Z,71.55
2022-10-22T14:39:21.626Z,70.57
2022-10-22T14:41:22.977Z,70.95
2022-10-22T14:43:24.334Z,70.71
2022-10-22T14:45:25.614Z,70.58
2022-10-22T14:47:26.901Z,70.95
2022-10-22T14:49:28.167Z,71.52
2022-10-22T14:51:29.439Z,71.94
2022-10-22T14:53:30.826Z,72.22
2022-10-22T14:55:32.163Z,72.24
2022-10-22T14:57:33.507Z,72.07
2022-10-22T14:59:34.874Z,71.82
2022-10-22T15:01:36.179Z,72.73
2022-10-22T15:03:37.494Z,72.44
2022-10-22T15:05:42.095Z,72.12
2022-10-22T15:07:43.672Z,71.36
2022-10-22T15:09:45.204Z,70.76
2022-10-22T15:11:46.534Z,71.24
2022-10-22T15:13:47.850Z,71.81
2022-10-22T15:15:49.113Z,71.05
2022-10-22T15:17:50.422Z,71.79
2022-10-22T15:19:53.134Z,72.70
2022-10-22T15:21:54.464Z,73.01
2022-10-22T15:23:55.759Z,73.04
2022-10-22T15:25:57.014Z,71.99
2022-10-22T15:28:04.639Z,71.09
2022-10-22T15:30:10.323Z,70.42
2022-10-22T15:32:11.637Z,70.21
2022-10-22T15:34:12.930Z,69.74
2022-10-22T15:36:14.329Z,69.67
2022-10-22T15:38:15.652Z,69.78
2022-10-22T15:40:16.987Z,70.29
2022-10-22T15:42:21.129Z,70.53
2022-10-22T15:44:22.414Z,70.33
2022-10-22T15:46:25.605Z,70.21
2022-10-22T15:48:26.887Z,69.77
2022-10-22T15:50:28.241Z,69.94
2022-10-22T15:52:29.524Z,70.15
2022-10-22T15:54:30.829Z,69.85
2022-10-22T15:56:32.118Z,69.69
2022-10-22T15:58:33.407Z,69.81
2022-10-22T16:00:35.520Z,69.55
2022-10-22T16:02:36.913Z,70.08
2022-10-22T16:04:38.403Z,69.71
2022-10-22T16:06:39.702Z,70.60
2022-10-22T16:08:41.063Z,70.21
2022-10-22T16:10:42.354Z,70.31
2022-10-22T16:12:44.032Z,70.30
2022-10-22T16:14:45.579Z,70.30
2022-10-22T16:16:46.875Z,70.03
2022-10-22T16:18:48.146Z,70.32
2022-10-22T16:20:49.439Z,70.49
2022-10-22T16:22:50.779Z,70.41
2022-10-22T16:24:52.097Z,70.67
2022-10-22T16:26:59.095Z,69.83
2022-10-22T16:29:00.407Z,70.64
2022-10-22T16:31:01.745Z,70.26
2022-10-22T16:33:03.575Z,70.22
2022-10-22T16:35:05.095Z,70.40
2022-10-22T16:37:10.181Z,70.16
2022-10-22T16:39:11.981Z,71.32
2022-10-22T16:41:15.184Z,71.09
2022-10-22T16:43:16.446Z,70.50
2022-10-22T16:45:17.736Z,70.30
2022-10-22T16:47:19.246Z,70.42
2022-10-22T16:49:20.513Z,70.44
2022-10-22T16:51:21.783Z,71.13
2022-10-22T16:53:23.105Z,71.02
2022-10-22T16:55:24.438Z,70.72
2022-10-22T16:57:25.757Z,70.79
2022-10-22T16:59:29.798Z,70.83
2022-10-22T17:01:31.119Z,70.84
2022-10-22T17:03:32.419Z,70.78
2022-10-22T17:05:33.687Z,70.70
2022-10-22T17:07:34.956Z,70.78
2022-10-22T17:09:36.416Z,70.75
2022-10-22T17:11:40.154Z,70.23
2022-10-22T17:13:43.818Z,70.72
2022-10-22T17:15:45.088Z,70.50
2022-10-22T17:17:50.903Z,70.64
2022-10-22T17:19:52.203Z,70.80
2022-10-22T17:21:54.320Z,70.46
2022-10-22T17:23:55.953Z,70.80
2022-10-22T17:26:00.291Z,70.38
2022-10-22T17:28:01.566Z,68.90
2022-10-22T17:30:02.857Z,70.33
2022-10-22T17:32:06.947Z,70.59
2022-10-22T17:34:08.266Z,70.49
2022-10-22T17:36:10.938Z,70.40
2022-10-22T17:38:12.263Z,70.70
2022-10-22T17:40:13.582Z,70.36
2022-10-22T17:42:14.878Z,70.41
2022-10-22T17:44:16.183Z,69.80
2022-10-22T17:46:17.815Z,69.94
2022-10-22T17:48:19.135Z,69.53
2022-10-22T17:50:20.454Z,69.59
2022-10-22T17:52:21.726Z,69.18
2022-10-22T17:54:22.995Z,68.89
2022-10-22T17:56:24.292Z,69.21
2022-10-22T17:58:25.586Z,70.54
2022-10-22T18:00:32.831Z,71.25
2022-10-22T18:02:34.115Z,70.49
2022-10-22T18:04:35.452Z,71.24
2022-10-22T18:06:36.778Z,71.39
2022-10-22T18:08:38.201Z,71.25
2022-10-22T18:10:39.566Z,71.50
2022-10-22T18:12:41.062Z,71.44
2022-10-22T18:14:44.047Z,71.92
2022-10-22T18:16:45.535Z,71.86
2022-10-22T18:18:47.519Z,72.63
2022-10-22T18:20:48.798Z,72.64
2022-10-22T18:22:50.095Z,73.02
2022-10-22T18:24:53.023Z,73.06
2022-10-22T18:26:54.378Z,73.16
2022-10-22T18:28:55.650Z,73.07
2022-10-22T18:30:56.967Z,72.97
2022-10-22T18:32:58.290Z,72.66
2022-10-22T18:34:59.575Z,71.95
2022-10-22T18:37:00.862Z,71.42
2022-10-22T18:39:02.205Z,71.60
2022-10-22T18:41:03.614Z,71.49
2022-10-22T18:43:04.906Z,71.38
2022-10-22T18:45:06.206Z,71.79
2022-10-22T18:47:08.670Z,71.25
2022-10-22T18:49:11.685Z,71.38
2022-10-22T18:51:12.966Z,71.17
2022-10-22T18:53:14.237Z,71.04
2022-10-22T18:55:15.606Z,71.74
2022-10-22T18:57:16.904Z,70.86
2022-10-22T18:59:21.370Z,71.41
2022-10-22T19:01:22.792Z,65.96
2022-10-22T19:03:24.105Z,68.21
2022-10-22T19:05:25.415Z,69.42
2022-10-22T19:07:26.731Z,68.56
2022-10-22T19:09:28.853Z,68.61
2022-10-22T19:11:30.343Z,68.64
2022-10-22T19:13:31.623Z,68.52
2022-10-22T19:15:32.931Z,68.70
2022-10-22T19:17:34.233Z,68.48
2022-10-22T19:19:35.507Z,69.44
2022-10-22T19:21:36.814Z,69.87
2022-10-22T19:23:38.157Z,69.98
2022-10-22T19:25:39.468Z,69.64
2022-10-22T19:27:41.254Z,69.42
2022-10-22T19:29:42.766Z,69.85
2022-10-22T19:31:44.474Z,69.87
2022-10-22T19:33:47.694Z,70.86
2022-10-22T19:35:48.980Z,69.81
2022-10-22T19:37:52.063Z,69.83
2022-10-22T19:39:53.374Z,69.98
2022-10-22T19:41:54.666Z,70.12
2022-10-22T19:43:55.921Z,70.29
2022-10-22T19:45:57.312Z,70.14
2022-10-22T19:47:58.574Z,70.06
2022-10-22T19:49:59.853Z,70.22
2022-10-22T19:52:01.194Z,69.85
2022-10-22T19:54:02.465Z,69.73
2022-10-22T19:56:03.721Z,69.92
2022-10-22T19:58:05.000Z,69.91
2022-10-22T20:00:06.262Z,70.14
2022-10-22T20:02:07.790Z,70.44
2022-10-22T20:04:09.117Z,70.44
2022-10-22T20:06:10.414Z,70.32
2022-10-22T20:08:11.690Z,70.40
2022-10-22T20:10:13.045Z,70.32
2022-10-22T20:12:14.330Z,70.25
2022-10-22T20:14:15.631Z,69.78
2022-10-22T20:16:16.962Z,70.14
2022-10-22T20:18:18.299Z,71.27
2022-10-22T20:20:23.017Z,71.12
2022-10-22T20:22:26.915Z,70.74
2022-10-22T20:24:28.245Z,70.87
2022-10-22T20:26:29.565Z,70.49
2022-10-22T20:28:30.846Z,70.48
2022-10-22T20:30:32.205Z,70.27
2022-10-22T20:32:33.684Z,70.72
2022-10-22T20:34:35.002Z,70.54
2022-10-22T20:36:36.310Z,70.59
2022-10-22T20:40:43.820Z,70.67
2022-10-22T20:42:46.309Z,71.23
2022-10-22T20:44:47.595Z,70.68
2022-10-22T20:46:48.926Z,70.74
2022-10-22T20:48:50.290Z,70.83
2022-10-22T20:50:51.574Z,70.72
2022-10-22T20:52:59.032Z,70.95
2022-10-22T20:55:03.401Z,71.14
2022-10-22T20:57:04.730Z,70.44
2022-10-22T20:59:07.959Z,70.59
2022-10-22T21:01:10.697Z,70.82
2022-10-22T21:03:12.042Z,70.95
2022-10-22T21:05:13.394Z,71.12
2022-10-22T21:07:14.646Z,70.71
2022-10-22T21:09:16.424Z,70.15
2022-10-22T21:11:17.858Z,70.75
2022-10-22T21:13:19.554Z,70.99
2022-10-22T21:15:20.834Z,70.98
2022-10-22T21:17:22.318Z,71.28
2022-10-22T21:19:24.774Z,71.05
2022-10-22T21:21:26.026Z,70.96
2022-10-22T21:23:27.338Z,70.93
2022-10-22T21:25:28.632Z,71.08
2022-10-22T21:27:29.892Z,71.33
2022-10-22T21:29:32.250Z,71.28
2022-10-22T21:31:33.525Z,71.37
2022-10-22T21:33:37.886Z,71.14
2022-10-22T21:35:39.785Z,70.81
2022-10-22T21:37:44.390Z,71.24
2022-10-22T21:39:45.754Z,71.28
2022-10-22T21:41:47.101Z,72.02
2022-10-22T21:43:48.414Z,71.69
2022-10-22T21:45:49.717Z,71.15
2022-10-22T21:47:51.000Z,71.73
2022-10-22T21:49:52.498Z,71.30
2022-10-22T21:51:53.774Z,71.21
2022-10-22T21:53:55.250Z,71.07
2022-10-22T21:55:56.621Z,71.07
2022-10-22T21:57:57.915Z,71.13
2022-10-22T21:59:59.253Z,71.12
2022-10-22T22:02:04.866Z,71.00
2022-10-22T22:04:07.290Z,71.03
2022-10-22T22:06:11.533Z,70.74
2022-10-22T22:08:13.513Z,70.99
2022-10-22T22:10:14.806Z,71.01
2022-10-22T22:12:16.095Z,70.89
2022-10-22T22:14:17.390Z,71.42
2022-10-22T22:16:21.193Z,71.17
2022-10-22T22:18:25.193Z,70.72
2022-10-22T22:20:26.527Z,71.18
2022-10-22T22:22:28.038Z,71.08
2022-10-22T22:24:29.323Z,71.45
2022-10-22T22:26:30.633Z,71.22
2022-10-22T22:28:31.905Z,71.33
2022-10-22T22:30:33.869Z,71.44
2022-10-22T22:32:35.146Z,71.62
2022-10-22T22:34:36.439Z,71.18
2022-10-22T22:36:37.711Z,71.09
2022-10-22T22:38:39.337Z,67.37
2022-10-22T22:40:41.186Z,70.07
2022-10-22T22:42:42.442Z,70.14
2022-10-22T22:44:43.718Z,70.65
2022-10-22T22:46:44.985Z,70.78
2022-10-22T22:48:46.258Z,71.16
2022-10-22T22:50:47.527Z,71.40
2022-10-22T22:52:48.814Z,71.70
2022-10-22T22:54:50.092Z,72.02
2022-10-22T22:56:51.440Z,71.88
2022-10-22T22:58:52.740Z,72.13
2022-10-22T23:00:54.056Z,72.48
2022-10-22T23:02:55.653Z,72.44
2022-10-22T23:04:56.954Z,72.42
2022-10-22T23:06:58.242Z,72.41
2022-10-22T23:08:59.952Z,72.88
2022-10-22T23:11:01.379Z,72.77
2022-10-22T23:13:02.646Z,73.09
2022-10-22T23:15:03.929Z,72.97
2022-10-22T23:17:05.222Z,73.26
2022-10-22T23:19:06.520Z,73.12
2022-10-22T23:21:07.910Z,73.22
2022-10-22T23:23:09.231Z,73.35
2022-10-22T23:25:10.541Z,73.32
2022-10-22T23:27:11.810Z,73.28
2022-10-22T23:29:13.090Z,73.33
2022-10-22T23:31:14.410Z,73.42
2022-10-22T23:33:16.377Z,73.70
2022-10-22T23:35:17.638Z,73.34
2022-10-22T23:37:18.962Z,73.09
2022-10-22T23:39:20.221Z,73.56
2022-10-22T23:41:21.492Z,73.84
2022-10-22T23:43:22.958Z,73.95
2022-10-22T23:45:24.231Z,73.96
2022-10-22T23:47:25.544Z,73.64
2022-10-22T23:49:26.859Z,74.03
2022-10-22T23:51:28.206Z,73.92
2022-10-22T23:53:29.477Z,73.84
2022-10-22T23:55:30.747Z,73.97
2022-10-22T23:57:32.048Z,73.52
2022-10-22T23:59:33.531Z,74.13
